createdAt,value
2023-04-26T05:12:07.495Z,10.81
2023-04-26T05:14:10.367Z,11.11
2023-04-26T05:16:13.499Z,11.32
2023-04-26T05:18:16.397Z,11.54
2023-04-26T05:20:19.446Z,11.68
2023-04-26T05:22:22.401Z,11.81
2023-04-26T05:24:25.276Z,11.89
2023-04-26T05:26:28.024Z,12.02
2023-04-26T05:28:32.177Z,12.09
2023-04-26T05:30:34.993Z,12.13
2023-04-26T05:32:37.873Z,12.21
2023-04-26T05:34:41.190Z,12.29
2023-04-26T05:36:43.996Z,12.34
2023-04-26T05:38:46.744Z,12.39
2023-04-26T05:40:51.310Z,12.43
2023-04-26T05:42:54.146Z,12.49
2023-04-26T05:44:59.767Z,12.52
2023-04-26T05:47:02.715Z,12.57
2023-04-26T05:49:06.013Z,12.60
2023-04-26T05:51:08.771Z,12.61
2023-04-26T05:53:11.487Z,12.63
2023-04-26T05:55:14.319Z,12.67
2023-04-26T05:57:18.122Z,12.68
2023-04-26T05:59:21.200Z,12.75
2023-04-26T06:01:25.856Z,12.79
2023-04-26T06:03:28.851Z,12.82
2023-04-26T06:05:32.327Z,12.87
2023-04-26T06:07:36.013Z,12.97
2023-04-26T06:09:38.879Z,13.08
2023-04-26T06:11:41.763Z,13.15
2023-04-26T06:13:44.488Z,13.20
2023-04-26T06:15:47.262Z,13.19
2023-04-26T06:17:51.453Z,13.22
2023-04-26T06:19:54.488Z,13.25
2023-04-26T06:21:57.395Z,13.23
2023-04-26T06:24:00.254Z,13.21
2023-04-26T06:26:03.077Z,13.24
2023-04-26T06:28:06.061Z,13.25
2023-04-26T06:30:10.073Z,13.27
2023-04-26T06:32:13.008Z,13.27
2023-04-26T06:34:17.109Z,13.31
2023-04-26T06:36:20.065Z,13.31
2023-04-26T06:38:22.887Z,13.32
2023-04-26T06:40:25.806Z,13.29
2023-04-26T06:42:28.683Z,13.28
2023-04-26T06:44:31.682Z,13.31
2023-04-26T06:46:34.661Z,13.33
2023-04-26T06:48:37.453Z,13.33
2023-04-26T06:50:41.808Z,13.37
2023-04-26T06:52:44.778Z,13.40
2023-04-26T06:54:56.538Z,13.48
2023-04-26T06:57:01.539Z,13.54
2023-04-26T06:59:06.981Z,13.54
2023-04-26T07:01:10.041Z,13.54
2023-04-26T07:03:13.022Z,13.54
2023-04-26T07:05:16.504Z,13.54
2023-04-26T07:07:20.836Z,13.54
2023-04-26T07:09:24.111Z,13.55
2023-04-26T07:11:27.122Z,13.55
2023-04-26T07:13:29.866Z,13.52
2023-04-26T07:15:33.244Z,13.52
2023-04-26T07:17:36.209Z,13.57
2023-04-26T07:19:39.131Z,13.59
2023-04-26T07:21:41.937Z,13.61
2023-04-26T07:23:46.272Z,13.63
2023-04-26T07:25:49.147Z,13.61
2023-04-26T07:27:52.372Z,13.54
2023-04-26T07:29:56.366Z,13.51
2023-04-26T07:31:59.439Z,13.49
2023-04-26T07:34:02.247Z,13.44
2023-04-26T07:36:05.497Z,13.41
2023-04-26T07:38:09.123Z,13.40
2023-04-26T07:40:14.882Z,13.40
2023-04-26T07:42:17.651Z,13.37
2023-04-26T07:44:20.520Z,13.34
2023-04-26T07:46:23.416Z,13.33
2023-04-26T07:48:26.444Z,13.32
2023-04-26T07:50:29.509Z,13.30
2023-04-26T07:52:32.363Z,13.29
2023-04-26T07:54:35.136Z,13.33
2023-04-26T07:56:39.413Z,13.33
2023-04-26T07:58:42.230Z,13.34
2023-04-26T08:00:45.133Z,13.32
2023-04-26T08:02:48.058Z,13.29
2023-04-26T08:04:52.750Z,13.30
2023-04-26T08:06:56.801Z,13.30
2023-04-26T08:08:59.629Z,13.32
2023-04-26T08:11:02.446Z,13.34
2023-04-26T08:13:06.542Z,13.35
2023-04-26T08:15:10.514Z,13.39
2023-04-26T08:17:13.455Z,13.41
2023-04-26T08:19:16.451Z,13.38
2023-04-26T08:21:19.370Z,13.33
2023-04-26T08:23:22.898Z,13.34
2023-04-26T08:25:26.255Z,13.37
2023-04-26T08:27:29.550Z,13.37
2023-04-26T08:29:33.883Z,13.37
2023-04-26T08:31:36.812Z,13.36
2023-04-26T08:33:39.742Z,13.37
2023-04-26T08:35:42.680Z,13.36
2023-04-26T08:37:46.028Z,13.38
2023-04-26T08:39:49.009Z,13.40
2023-04-26T08:41:55.312Z,13.39
2023-04-26T08:43:59.816Z,13.39
2023-04-26T08:46:08.859Z,13.40
2023-04-26T08:48:15.779Z,13.46
2023-04-26T08:50:22.059Z,13.46
2023-04-26T08:52:28.516Z,13.44
2023-04-26T08:54:33.155Z,13.43
2023-04-26T08:56:36.509Z,13.45
2023-04-26T08:58:39.564Z,13.48
2023-04-26T09:00:46.345Z,13.54
2023-04-26T09:02:52.682Z,13.58
2023-04-26T09:04:56.624Z,13.61
2023-04-26T09:07:02.195Z,13.63
2023-04-26T09:09:07.812Z,13.66
2023-04-26T09:11:10.800Z,13.70
2023-04-26T09:13:14.531Z,13.69
2023-04-26T09:15:17.887Z,13.69
2023-04-26T09:17:28.212Z,13.65
2023-04-26T09:19:47.619Z,13.65
2023-04-26T09:21:50.599Z,13.69
2023-04-26T09:24:00.268Z,13.71
2023-04-26T09:26:20.446Z,13.72
2023-04-26T09:28:25.852Z,13.74
2023-04-26T09:30:29.893Z,13.73
2023-04-26T09:32:48.505Z,13.68
2023-04-26T09:34:55.468Z,13.69
2023-04-26T09:37:00.915Z,13.73
2023-04-26T09:39:03.926Z,13.76
2023-04-26T09:41:06.930Z,13.78
2023-04-26T09:43:12.556Z,13.85
2023-04-26T09:45:18.115Z,13.91
2023-04-26T09:47:23.383Z,13.92
2023-04-26T09:49:27.370Z,13.96
2023-04-26T09:51:32.255Z,13.98
2023-04-26T09:53:37.476Z,14.01
2023-04-26T09:55:40.486Z,14.06
2023-04-26T09:57:46.457Z,14.09
2023-04-26T09:59:53.539Z,14.14
2023-04-26T10:01:58.809Z,14.13
2023-04-26T10:04:05.274Z,14.15
2023-04-26T10:06:08.636Z,14.15
2023-04-26T10:08:13.152Z,14.16
2023-04-26T10:10:16.239Z,14.17
2023-04-26T10:12:20.888Z,14.18
2023-04-26T10:14:23.863Z,14.20
2023-04-26T10:16:27.038Z,14.24
2023-04-26T10:18:29.979Z,14.28
2023-04-26T10:20:33.160Z,14.30
2023-04-26T10:22:41.728Z,14.30
2023-04-26T10:24:46.820Z,14.33
2023-04-26T10:26:52.014Z,14.35
2023-04-26T10:29:02.233Z,14.41
2023-04-26T10:31:07.103Z,14.45
2023-04-26T10:33:14.727Z,14.53
2023-04-26T10:35:19.149Z,14.59
2023-04-26T10:37:21.976Z,14.62
2023-04-26T10:39:25.915Z,14.67
2023-04-26T10:41:36.398Z,14.69
2023-04-26T10:43:42.852Z,14.72
2023-04-26T10:45:47.047Z,14.77
2023-04-26T10:47:50.008Z,14.81
2023-04-26T10:49:53.427Z,14.85
2023-04-26T10:52:13.258Z,14.81
2023-04-26T10:54:16.164Z,14.80
2023-04-26T10:56:54.026Z,14.79
2023-04-26T10:59:28.311Z,14.83
2023-04-26T11:01:32.106Z,14.90
2023-04-26T11:03:35.527Z,14.95
2023-04-26T11:05:56.923Z,14.99
2023-04-26T11:08:05.904Z,15.04
2023-04-26T11:10:11.565Z,15.09
2023-04-26T11:12:17.281Z,15.12
2023-04-26T11:14:20.430Z,15.18
2023-04-26T11:16:26.666Z,15.21
2023-04-26T11:18:30.038Z,15.26
2023-04-26T11:20:34.019Z,15.28
2023-04-26T11:22:41.773Z,15.33
2023-04-26T11:24:44.686Z,15.39
2023-04-26T11:26:52.844Z,15.41
2023-04-26T11:28:57.058Z,15.44
2023-04-26T11:31:00.859Z,15.48
2023-04-26T11:33:05.068Z,15.51
2023-04-26T11:35:09.378Z,15.51
2023-04-26T11:37:12.185Z,15.52
2023-04-26T11:39:15.217Z,15.56
2023-04-26T11:41:18.752Z,15.62
2023-04-26T11:43:21.820Z,15.64
2023-04-26T11:45:26.060Z,15.66
2023-04-26T11:47:30.840Z,15.68
2023-04-26T11:49:35.083Z,15.75
2023-04-26T11:51:38.112Z,15.81
2023-04-26T11:53:42.582Z,15.87
2023-04-26T11:55:46.202Z,15.92
2023-04-26T11:57:49.013Z,15.95
2023-04-26T11:59:52.119Z,15.96
2023-04-26T12:01:57.509Z,15.99
2023-04-26T12:04:01.159Z,16.01
2023-04-26T12:06:04.384Z,16.05
2023-04-26T12:08:08.731Z,16.10
2023-04-26T12:10:18.609Z,16.15
2023-04-26T12:12:24.750Z,16.14
2023-04-26T12:14:32.670Z,16.13
2023-04-26T12:16:37.553Z,16.11
2023-04-26T12:18:42.482Z,16.12
2023-04-26T12:20:46.730Z,16.15
2023-04-26T12:23:03.083Z,16.11
2023-04-26T12:25:07.643Z,16.12
2023-04-26T12:27:21.060Z,16.17
2023-04-26T12:29:24.030Z,16.20
2023-04-26T12:31:27.108Z,16.23
2023-04-26T12:33:30.958Z,16.22
2023-04-26T12:35:36.106Z,16.25
2023-04-26T12:37:41.603Z,16.27
2023-04-26T12:39:47.029Z,16.29
2023-04-26T12:41:50.170Z,16.33
2023-04-26T12:43:53.043Z,16.34
2023-04-26T12:45:56.144Z,16.38
2023-04-26T12:47:59.184Z,16.41
2023-04-26T12:50:02.055Z,16.45
2023-04-26T12:52:09.266Z,16.49
2023-04-26T12:54:12.343Z,16.53
2023-04-26T12:56:16.301Z,16.54
2023-04-26T12:58:21.902Z,16.54
2023-04-26T13:00:25.075Z,16.58
2023-04-26T13:02:28.079Z,16.62
2023-04-26T13:04:35.651Z,16.67
2023-04-26T13:06:40.484Z,16.74
2023-04-26T13:08:44.750Z,16.77
2023-04-26T13:10:47.554Z,16.79
2023-04-26T13:12:50.343Z,16.81
2023-04-26T13:14:53.188Z,16.81
2023-04-26T13:16:56.429Z,16.81
2023-04-26T13:18:59.578Z,16.82
2023-04-26T13:21:02.440Z,16.83
2023-04-26T13:23:08.192Z,16.81
2023-04-26T13:25:13.260Z,16.83
2023-04-26T13:27:16.293Z,16.81
2023-04-26T13:29:19.103Z,16.81
2023-04-26T13:31:22.247Z,16.83
2023-04-26T13:33:25.155Z,16.87
2023-04-26T13:35:34.873Z,16.87
2023-04-26T13:37:39.543Z,16.90
2023-04-26T13:39:42.550Z,16.92
2023-04-26T13:41:46.973Z,16.97
2023-04-26T13:43:50.170Z,16.99
2023-04-26T13:45:53.140Z,17.03
2023-04-26T13:47:56.727Z,17.05
2023-04-26T13:49:59.838Z,17.07
2023-04-26T13:52:03.057Z,17.08
2023-04-26T13:54:06.630Z,17.05
2023-04-26T13:56:09.621Z,17.01
2023-04-26T13:58:14.043Z,17.00
2023-04-26T14:00:18.672Z,17.06
2023-04-26T14:02:22.319Z,17.06
2023-04-26T14:04:25.610Z,17.07
2023-04-26T14:06:29.762Z,17.09
2023-04-26T14:08:32.785Z,17.10
2023-04-26T14:10:35.589Z,17.08
2023-04-26T14:12:38.642Z,17.05
2023-04-26T14:14:42.893Z,17.05
2023-04-26T14:16:45.861Z,17.04
2023-04-26T14:18:48.996Z,17.05
2023-04-26T14:20:52.024Z,17.06
2023-04-26T14:22:54.806Z,17.07
2023-04-26T14:25:00.259Z,17.09
2023-04-26T14:27:03.190Z,17.14
2023-04-26T14:29:06.223Z,17.16
2023-04-26T14:31:10.801Z,17.20
2023-04-26T14:33:13.953Z,17.25
2023-04-26T14:35:16.935Z,17.30
2023-04-26T14:37:22.933Z,17.32
2023-04-26T14:39:26.157Z,17.34
2023-04-26T14:41:29.214Z,17.36
2023-04-26T14:43:32.104Z,17.33
2023-04-26T14:45:44.012Z,17.30
2023-04-26T14:47:49.050Z,17.32
2023-04-26T14:49:51.975Z,17.29
2023-04-26T14:51:54.792Z,17.22
2023-04-26T14:53:57.606Z,17.18
2023-04-26T14:56:02.058Z,17.12
2023-04-26T14:58:04.989Z,17.12
2023-04-26T15:00:14.194Z,17.09
2023-04-26T15:02:17.130Z,17.08
2023-04-26T15:04:21.603Z,17.09
2023-04-26T15:06:24.776Z,17.09
2023-04-26T15:08:27.805Z,17.08
2023-04-26T15:10:31.022Z,17.10
2023-04-26T15:12:33.748Z,17.14
2023-04-26T15:14:36.627Z,17.15
2023-04-26T15:16:39.508Z,17.19
2023-04-26T15:18:42.363Z,17.21
2023-04-26T15:20:46.717Z,17.20
2023-04-26T15:22:50.079Z,17.22
2023-04-26T15:24:52.952Z,17.23
2023-04-26T15:26:55.847Z,17.25
2023-04-26T15:28:58.790Z,17.25
2023-04-26T15:31:04.614Z,17.25
2023-04-26T15:33:08.279Z,17.22
2023-04-26T15:35:14.119Z,17.20
2023-04-26T15:37:18.875Z,17.17
2023-04-26T15:39:21.822Z,17.17
2023-04-26T15:41:24.748Z,17.17
2023-04-26T15:43:27.895Z,17.16
2023-04-26T15:45:30.657Z,17.17
2023-04-26T15:47:35.430Z,17.17
2023-04-26T15:49:38.410Z,17.16
2023-04-26T15:51:41.350Z,17.16
2023-04-26T15:53:45.438Z,17.15
2023-04-26T15:55:48.240Z,17.11
2023-04-26T15:57:51.026Z,17.11
2023-04-26T15:59:53.777Z,17.10
2023-04-26T16:01:56.638Z,17.08
2023-04-26T16:03:59.713Z,17.07
2023-04-26T16:06:02.541Z,17.04
2023-04-26T16:08:06.147Z,17.05
2023-04-26T16:10:11.795Z,17.03
2023-04-26T16:12:14.751Z,17.03
2023-04-26T16:14:17.626Z,17.03
2023-04-26T16:16:20.885Z,17.03
2023-04-26T16:18:23.791Z,17.03
2023-04-26T16:20:27.524Z,17.06
2023-04-26T16:22:30.628Z,17.05
2023-04-26T16:24:33.477Z,17.04
2023-04-26T16:26:37.704Z,17.05
2023-04-26T16:28:40.616Z,17.07
2023-04-26T16:30:43.818Z,17.08
2023-04-26T16:32:46.676Z,17.07
2023-04-26T16:34:49.611Z,17.07
2023-04-26T16:36:52.516Z,17.08
2023-04-26T16:38:56.342Z,17.08
2023-04-26T16:41:01.515Z,17.09
2023-04-26T16:43:09.311Z,17.10
2023-04-26T16:45:16.121Z,17.11
2023-04-26T16:47:21.790Z,17.10
2023-04-26T16:49:25.160Z,17.09
2023-04-26T16:51:28.714Z,17.10
2023-04-26T16:53:31.761Z,17.10
2023-04-26T16:55:35.178Z,17.11
2023-04-26T16:57:38.333Z,17.10
2023-04-26T16:59:42.401Z,17.09
2023-04-26T17:01:45.611Z,17.09
2023-04-26T17:03:48.766Z,17.09
2023-04-26T17:05:52.526Z,17.09
2023-04-26T17:07:55.948Z,17.08
2023-04-26T17:09:59.004Z,17.09
2023-04-26T17:12:02.545Z,17.08
2023-04-26T17:14:06.252Z,17.09
2023-04-26T17:16:11.072Z,17.09
2023-04-26T17:18:14.407Z,17.08
2023-04-26T17:20:18.415Z,17.08
2023-04-26T17:22:21.907Z,17.04
2023-04-26T17:24:25.167Z,17.06
2023-04-26T17:26:28.895Z,17.03
2023-04-26T17:28:33.012Z,17.03
2023-04-26T17:30:35.993Z,17.02
2023-04-26T17:32:40.251Z,17.01
2023-04-26T17:34:43.157Z,17.00
2023-04-26T17:36:47.474Z,16.98
2023-04-26T17:38:50.557Z,16.97
2023-04-26T17:40:54.587Z,16.96
2023-04-26T17:42:57.365Z,16.95
2023-04-26T17:45:01.241Z,16.95
2023-04-26T17:47:04.150Z,16.95
2023-04-26T17:49:08.357Z,16.94
2023-04-26T17:51:11.691Z,16.96
2023-04-26T17:53:14.737Z,16.96
2023-04-26T17:55:18.036Z,16.96
2023-04-26T17:57:23.050Z,16.96
2023-04-26T17:59:25.771Z,16.95
2023-04-26T18:01:28.869Z,16.96
2023-04-26T18:03:35.820Z,16.95
2023-04-26T18:05:40.626Z,16.93
2023-04-26T18:07:43.468Z,16.92
2023-04-26T18:09:46.282Z,16.94
2023-04-26T18:11:49.071Z,16.95
2023-04-26T18:13:51.853Z,16.94
2023-04-26T18:15:55.831Z,16.93
2023-04-26T18:18:00.741Z,16.93
2023-04-26T18:20:03.751Z,16.91
2023-04-26T18:22:08.999Z,16.90
2023-04-26T18:24:11.809Z,16.91
2023-04-26T18:26:15.037Z,16.90
2023-04-26T18:28:18.109Z,16.90
2023-04-26T18:30:21.155Z,16.90
2023-04-26T18:32:24.055Z,16.88
2023-04-26T18:34:26.951Z,16.88
2023-04-26T18:36:31.828Z,16.86
2023-04-26T18:38:36.208Z,16.84
2023-04-26T18:40:39.007Z,16.84
2023-04-26T18:42:41.970Z,16.82
2023-04-26T18:44:44.775Z,16.81
2023-04-26T18:46:47.881Z,16.81
2023-04-26T18:48:51.136Z,16.79
2023-04-26T18:50:54.719Z,16.77
2023-04-26T18:52:58.243Z,16.77
2023-04-26T18:55:02.832Z,16.77
2023-04-26T18:57:05.645Z,16.78
2023-04-26T18:59:08.949Z,16.79
2023-04-26T19:01:11.959Z,16.82
2023-04-26T19:03:14.882Z,16.82
2023-04-26T19:05:17.918Z,16.83
2023-04-26T19:07:20.896Z,16.85
2023-04-26T19:09:23.751Z,16.86
2023-04-26T19:11:28.158Z,16.86
2023-04-26T19:13:30.945Z,16.86
2023-04-26T19:15:33.744Z,16.86
2023-04-26T19:17:37.363Z,16.85
2023-04-26T19:19:40.038Z,16.86
2023-04-26T19:21:43.079Z,16.86
2023-04-26T19:23:46.735Z,16.88
2023-04-26T19:25:49.750Z,16.88
2023-04-26T19:27:53.993Z,16.88
2023-04-26T19:29:58.904Z,16.89
2023-04-26T19:32:04.451Z,16.90
2023-04-26T19:34:07.359Z,16.90
2023-04-26T19:36:10.705Z,16.91
2023-04-26T19:38:13.706Z,16.89
2023-04-26T19:40:16.805Z,16.90
2023-04-26T19:42:19.750Z,16.91
2023-04-26T19:44:23.941Z,16.90
2023-04-26T19:46:27.108Z,16.88
2023-04-26T19:48:29.945Z,16.89
2023-04-26T19:50:33.039Z,16.87
2023-04-26T19:52:35.880Z,16.87
2023-04-26T19:54:38.655Z,16.87
2023-04-26T19:56:41.505Z,16.87
2023-04-26T19:58:44.294Z,16.86
2023-04-26T20:00:48.696Z,16.86
2023-04-26T20:02:51.770Z,16.84
2023-04-26T20:04:54.738Z,16.86
2023-04-26T20:06:59.731Z,16.86
2023-04-26T20:09:02.720Z,16.86
2023-04-26T20:11:05.900Z,16.86
2023-04-26T20:13:08.760Z,16.84
2023-04-26T20:15:15.104Z,16.85
2023-04-26T20:17:19.549Z,16.84
2023-04-26T20:19:22.480Z,16.83
2023-04-26T20:21:27.173Z,16.82
2023-04-26T20:23:31.544Z,16.78
2023-04-26T20:25:34.393Z,16.74
2023-04-26T20:27:37.401Z,16.72
2023-04-26T20:29:40.261Z,16.70
2023-04-26T20:31:43.085Z,16.67
2023-04-26T20:33:47.324Z,16.65
